Unicom:                    122.8

AWOS:                  118.275

Elevation           1458’ MSL

TPA:                   2500’ MSL

06/24:         5003’ L   75’ W

PAPI:       06/Left     24/Left

(Operate lights on unicom freq.)

Traffic Pattern: Left

Beacon: Sunset to Sunrise

Windsock: yes, lighted

Segmented Circle: No

 

Cleveland Center: 126.72/291.65

FSS: Altoona

[Source: ADDS]
METAR
KFKL 151408Z AUTO 30006KT 10SM BKN016 OVC023 17/14 A2994 RMK AO2 =
KFKL 151123Z 1512/1612 30007KT 4SM BR BKN002 FM151400 33009G16KT P6SM SCT040 FM152300 32004KT P6SM BKN200
TAF
KFKL 151123Z 1512/1612 30007KT 4SM BR BKN002 FM151400 33009G16KT P6SM SCT040 FM152300 32004KT P6SM BKN200 =
[Source: ADDS]
METAR
KDUJ 151416Z AUTO 29010KT 10SM BKN015 BKN020 BKN028 17/12 A2991 RMK AO2 T01670122 =
KDUJ 151123Z 1512/1612 28006KT P6SM SCT060 TEMPO 1512/1514 4SM BR BKN002 FM151400 33010G20KT P6SM SCT040 FM152300 32005KT P6SM SCT150
TAF
KDUJ 151123Z 1512/1612 28006KT P6SM SCT060 TEMPO 1512/1514 4SM BR BKN002 FM151400 33010G20KT P6SM SCT040 FM152300 32005KT P6SM SCT150 =

Airport Information. 

Runway Length: 5003ft x 75ft

Runways 6/24

Traffic Pattern: Left

PAPI’s: 2 light PAPI on left of both 6/24

TPA: 2500 msl

Field Elevation: 1458 msl

Surface: Asphalt

Beacon: Operates Sunset-Sunrise

Pilot Controlled Lighting:  yes 122.8

 

Fuel:

Jet-A w/prist

100 LL

Center point fueling available upon request.

 

Unicom Frequency: 122.8

AWOS Frequency: 118.27  (814-227-2899)

 

Cleveland Center: 126.72 (440-774-0442)

 

GPS Approach Plates for 6/24 download here: http://www.airnav.com/airport/KAXQ

[Source: ADDS]
METAR
KFKL 151408Z AUTO 30006KT 10SM BKN016 OVC023 17/14 A2994 RMK AO2 =
KFKL 151123Z 1512/1612 30007KT 4SM BR BKN002 FM151400 33009G16KT P6SM SCT040 FM152300 32004KT P6SM BKN200
TAF
KFKL 151123Z 1512/1612 30007KT 4SM BR BKN002 FM151400 33009G16KT P6SM SCT040 FM152300 32004KT P6SM BKN200 =
[Source: ADDS]
METAR
KDUJ 151416Z AUTO 29010KT 10SM BKN015 BKN020 BKN028 17/12 A2991 RMK AO2 T01670122 =
KDUJ 151123Z 1512/1612 28006KT P6SM SCT060 TEMPO 1512/1514 4SM BR BKN002 FM151400 33010G20KT P6SM SCT040 FM152300 32005KT P6SM SCT150
TAF
KDUJ 151123Z 1512/1612 28006KT P6SM SCT060 TEMPO 1512/1514 4SM BR BKN002 FM151400 33010G20KT P6SM SCT040 FM152300 32005KT P6SM SCT150 =